createdAt,value
2023-03-31T00:02:14.034Z,97996.63
2023-03-31T00:04:46.453Z,97996.78
2023-03-31T00:07:14.771Z,98008.41
2023-03-31T00:09:46.229Z,98004.16
2023-03-31T00:12:16.729Z,97999.47
2023-03-31T00:14:43.886Z,97998.19
2023-03-31T00:17:11.560Z,97993.78
2023-03-31T00:19:40.229Z,97996.47
2023-03-31T00:22:07.158Z,97991.34
2023-03-31T00:24:34.306Z,97991.22
2023-03-31T00:27:04.520Z,97987.94
2023-03-31T00:29:33.644Z,97991.47
2023-03-31T00:32:00.556Z,97992.50
2023-03-31T00:34:28.044Z,97989.06
2023-03-31T00:36:56.836Z,97994.00
2023-03-31T00:39:28.125Z,97997.56
2023-03-31T00:41:54.872Z,98001.25
2023-03-31T00:44:25.581Z,97993.16
2023-03-31T00:46:55.962Z,97991.44
2023-03-31T00:49:30.208Z,97986.94
2023-03-31T00:52:08.440Z,97985.78
2023-03-31T00:54:35.777Z,97991.31
2023-03-31T00:57:03.734Z,97982.25
2023-03-31T00:59:31.749Z,97980.53
2023-03-31T01:01:59.348Z,97988.91
2023-03-31T01:04:26.536Z,97988.75
2023-03-31T01:07:04.030Z,97981.94
2023-03-31T01:09:35.005Z,97982.78
2023-03-31T01:12:03.588Z,97981.22
2023-03-31T01:14:31.364Z,97978.69
2023-03-31T01:16:58.189Z,97985.91
2023-03-31T01:20:01.943Z,97984.19
2023-03-31T01:22:53.114Z,97991.44
2023-03-31T01:25:38.765Z,97993.25
2023-03-31T01:28:23.481Z,97983.63
2023-03-31T01:31:23.058Z,97990.13
2023-03-31T01:34:27.587Z,97989.84
2023-03-31T01:37:14.824Z,97984.59
2023-03-31T01:40:28.725Z,97990.38
2023-03-31T01:42:59.698Z,97988.44
2023-03-31T01:45:28.243Z,97987.56
2023-03-31T01:48:03.077Z,97990.13
2023-03-31T01:51:03.525Z,97988.44
2023-03-31T01:53:34.879Z,97984.88
2023-03-31T01:56:16.180Z,97984.16
2023-03-31T01:58:47.782Z,97971.97
2023-03-31T02:01:22.512Z,97977.09
2023-03-31T02:03:54.233Z,97978.31
2023-03-31T02:06:24.549Z,97967.41
2023-03-31T02:08:57.456Z,97975.63
2023-03-31T02:11:24.360Z,97970.50
2023-03-31T02:13:52.623Z,97967.69
2023-03-31T02:16:24.549Z,97969.53
2023-03-31T02:18:53.932Z,97961.59
2023-03-31T02:21:20.694Z,97964.28
2023-03-31T02:23:47.728Z,97971.63
2023-03-31T02:26:25.139Z,97966.22
2023-03-31T02:28:52.243Z,97964.38
2023-03-31T02:32:00.966Z,97956.44
2023-03-31T02:34:28.181Z,97971.03
2023-03-31T02:36:54.944Z,97960.94
2023-03-31T02:39:25.614Z,97961.38
2023-03-31T02:41:52.369Z,97948.03
2023-03-31T02:44:19.478Z,97948.88
2023-03-31T02:46:46.294Z,97942.09
2023-03-31T02:49:13.467Z,97941.94
2023-03-31T02:51:46.917Z,97944.66
2023-03-31T02:54:35.311Z,97940.38
2023-03-31T02:57:12.460Z,97936.13
2023-03-31T02:59:58.251Z,97927.03
2023-03-31T03:02:31.045Z,97930.75
2023-03-31T03:05:27.476Z,97935.25
2023-03-31T03:08:32.126Z,97929.88
2023-03-31T03:11:08.040Z,97930.03
2023-03-31T03:13:48.049Z,97930.28
2023-03-31T03:16:24.782Z,97934.66
2023-03-31T03:18:59.153Z,97935.34
2023-03-31T03:21:26.649Z,97932.25
2023-03-31T03:23:53.584Z,97928.13
2023-03-31T03:26:24.480Z,97928.72
2023-03-31T03:28:51.442Z,97922.88
2023-03-31T03:31:19.463Z,97922.88
2023-03-31T03:33:46.554Z,97923.72
2023-03-31T03:36:13.798Z,97918.22
2023-03-31T03:38:40.754Z,97919.47
2023-03-31T03:41:07.837Z,97919.47
2023-03-31T03:43:34.600Z,97929.28
2023-03-31T03:46:01.905Z,97921.59
2023-03-31T03:48:28.730Z,97915.19
2023-03-31T03:50:55.928Z,97909.09
2023-03-31T03:53:22.680Z,97910.50
2023-03-31T03:55:49.840Z,97909.06
2023-03-31T03:58:17.299Z,97912.63
2023-03-31T04:00:45.408Z,97909.06
2023-03-31T04:03:13.072Z,97906.50
2023-03-31T04:05:40.258Z,97914.84
2023-03-31T04:08:08.500Z,97914.13
2023-03-31T04:10:35.956Z,97907.06
2023-03-31T04:13:03.079Z,97912.56
2023-03-31T04:15:30.246Z,97911.09
2023-03-31T04:17:58.214Z,97907.97
2023-03-31T04:20:31.580Z,97902.72
2023-03-31T04:22:58.296Z,97895.84
2023-03-31T04:25:25.456Z,97893.53
2023-03-31T04:27:55.619Z,97894.50
2023-03-31T04:30:30.769Z,97889.72
2023-03-31T04:32:59.442Z,97879.38
2023-03-31T04:35:28.226Z,97885.72
2023-03-31T04:38:02.602Z,97879.19
2023-03-31T04:40:29.749Z,97882.84
2023-03-31T04:42:56.490Z,97883.44
2023-03-31T04:45:23.586Z,97872.66
2023-03-31T04:47:50.366Z,97868.44
2023-03-31T04:50:17.698Z,97867.41
2023-03-31T04:52:44.826Z,97868.03
2023-03-31T04:55:11.928Z,97865.59
2023-03-31T04:57:38.704Z,97869.97
2023-03-31T05:00:09.218Z,97863.88
2023-03-31T05:02:36.134Z,97863.03
2023-03-31T05:05:04.545Z,97869.28
2023-03-31T05:07:31.599Z,97873.09
2023-03-31T05:09:58.726Z,97863.31
2023-03-31T05:12:25.986Z,97853.53
2023-03-31T05:14:53.112Z,97853.53
2023-03-31T05:17:19.883Z,97853.66
2023-03-31T05:19:46.922Z,97855.38
2023-03-31T05:22:13.706Z,97856.75
2023-03-31T05:24:40.726Z,97856.47
2023-03-31T05:27:07.558Z,97861.59
2023-03-31T05:29:34.723Z,97858.19
2023-03-31T05:32:01.741Z,97858.06
2023-03-31T05:34:28.997Z,97854.41
2023-03-31T05:36:55.893Z,97852.88
2023-03-31T05:39:22.986Z,97850.50
2023-03-31T05:41:49.754Z,97853.91
2023-03-31T05:44:16.958Z,97844.72
2023-03-31T05:46:44.167Z,97848.13
2023-03-31T05:49:11.971Z,97851.66
2023-03-31T05:51:38.725Z,97850.81
2023-03-31T05:54:06.505Z,97851.38
2023-03-31T05:56:33.684Z,97856.50
2023-03-31T05:59:01.390Z,97868.25
2023-03-31T06:01:30.195Z,97862.72
2023-03-31T06:03:57.447Z,97852.81
2023-03-31T06:06:25.427Z,97857.78
2023-03-31T06:08:52.649Z,97853.28
2023-03-31T06:11:21.055Z,97844.78
2023-03-31T06:13:48.654Z,97838.28
2023-03-31T06:16:17.213Z,97833.63
2023-03-31T06:18:44.472Z,97839.72
2023-03-31T06:21:16.694Z,97830.38
2023-03-31T06:23:47.132Z,97835.34
2023-03-31T06:26:15.712Z,97833.53
2023-03-31T06:28:43.574Z,97836.78
2023-03-31T06:31:14.782Z,97829.28
2023-03-31T06:34:21.578Z,97831.28
2023-03-31T06:36:48.459Z,97826.47
2023-03-31T06:39:21.657Z,97831.34
2023-03-31T06:41:48.471Z,97827.38
2023-03-31T06:44:19.380Z,97829.81
2023-03-31T06:46:46.273Z,97823.69
2023-03-31T06:49:13.518Z,97819.03
2023-03-31T06:51:40.564Z,97829.22
2023-03-31T06:54:07.638Z,97826.28
2023-03-31T06:56:34.634Z,97820.31
2023-03-31T06:59:01.710Z,97809.84
2023-03-31T07:01:28.533Z,97806.72
2023-03-31T07:03:55.886Z,97803.56
2023-03-31T07:06:53.766Z,97809.25
2023-03-31T07:09:23.473Z,97814.06
2023-03-31T07:11:50.280Z,97811.81
2023-03-31T07:14:17.402Z,97805.97
2023-03-31T07:16:44.340Z,97806.13
2023-03-31T07:19:11.537Z,97806.09
2023-03-31T07:21:38.295Z,97800.41
2023-03-31T07:24:05.820Z,97793.88
2023-03-31T07:26:32.719Z,97791.84
2023-03-31T07:28:59.976Z,97790.25
2023-03-31T07:31:26.835Z,97780.75
2023-03-31T07:33:53.956Z,97789.81
2023-03-31T07:36:20.927Z,97793.75
2023-03-31T07:38:49.686Z,97787.50
2023-03-31T07:41:20.524Z,97793.31
2023-03-31T07:43:47.849Z,97794.53
2023-03-31T07:46:22.873Z,97784.69
2023-03-31T07:48:49.975Z,97786.81
2023-03-31T07:51:18.444Z,97780.81
2023-03-31T07:53:46.005Z,97775.50
2023-03-31T07:56:12.904Z,97776.03
2023-03-31T07:58:40.003Z,97768.19
2023-03-31T08:01:08.253Z,97769.25
2023-03-31T08:03:35.571Z,97771.06
2023-03-31T08:06:02.428Z,97765.31
2023-03-31T08:08:29.545Z,97760.16
2023-03-31T08:10:56.386Z,97754.13
2023-03-31T08:13:23.517Z,97746.25
2023-03-31T08:15:50.372Z,97741.22
2023-03-31T08:18:17.636Z,97733.81
2023-03-31T08:20:44.430Z,97737.59
2023-03-31T08:23:12.151Z,97727.31
2023-03-31T08:25:38.978Z,97717.03
2023-03-31T08:28:06.949Z,97717.56
2023-03-31T08:30:33.876Z,97720.81
2023-03-31T08:33:00.992Z,97719.91
2023-03-31T08:35:27.828Z,97721.63
2023-03-31T08:37:54.948Z,97716.94
2023-03-31T08:40:26.341Z,97716.97
2023-03-31T08:42:55.566Z,97716.66
2023-03-31T08:45:23.536Z,97715.50
2023-03-31T08:47:58.619Z,97707.75
2023-03-31T08:50:27.670Z,97701.84
2023-03-31T08:53:04.075Z,97692.53
2023-03-31T08:55:42.465Z,97690.19
2023-03-31T08:58:15.948Z,97682.63
2023-03-31T09:00:52.485Z,97682.84
2023-03-31T09:03:26.115Z,97680.66
2023-03-31T09:06:07.187Z,97668.81
2023-03-31T09:08:35.805Z,97660.88
2023-03-31T09:11:32.478Z,97659.22
2023-03-31T09:14:18.466Z,97667.19
2023-03-31T09:16:49.637Z,97671.28
2023-03-31T09:19:25.722Z,97661.47
2023-03-31T09:21:53.308Z,97667.91
2023-03-31T09:24:27.460Z,97664.19
2023-03-31T09:27:07.620Z,97656.75
2023-03-31T09:29:38.666Z,97649.16
2023-03-31T09:32:18.103Z,97644.59
2023-03-31T09:34:46.268Z,97638.66
2023-03-31T09:37:13.155Z,97643.94
2023-03-31T09:39:40.675Z,97639.84
2023-03-31T09:42:07.489Z,97635.78
2023-03-31T09:44:41.383Z,97630.88
2023-03-31T09:47:12.985Z,97632.03
2023-03-31T09:49:40.103Z,97611.38
2023-03-31T09:52:35.260Z,97602.50
2023-03-31T09:55:05.586Z,97596.91
2023-03-31T09:57:39.094Z,97599.94
2023-03-31T10:00:16.977Z,97595.19
2023-03-31T10:02:50.640Z,97591.59
2023-03-31T10:05:26.103Z,97586.00
2023-03-31T10:08:14.304Z,97584.28
2023-03-31T10:10:45.538Z,97578.66
2023-03-31T10:13:14.520Z,97585.47
2023-03-31T10:15:42.438Z,97573.75
2023-03-31T10:18:16.689Z,97582.06
2023-03-31T10:20:45.321Z,97582.94
2023-03-31T10:23:29.772Z,97587.81
2023-03-31T10:25:56.887Z,97587.31
2023-03-31T10:28:23.691Z,97575.81
2023-03-31T10:30:55.763Z,97572.75
2023-03-31T10:33:25.155Z,97575.78
2023-03-31T10:36:26.235Z,97568.66
2023-03-31T10:38:53.298Z,97568.97
2023-03-31T10:41:24.227Z,97560.78
2023-03-31T10:43:55.735Z,97561.44
2023-03-31T10:46:49.323Z,97556.00
2023-03-31T10:49:22.315Z,97551.97
2023-03-31T10:51:59.427Z,97546.72
2023-03-31T10:54:26.719Z,97543.31
2023-03-31T10:57:05.619Z,97544.28
2023-03-31T10:59:48.490Z,97538.66
2023-03-31T11:02:51.498Z,97531.72
2023-03-31T11:05:39.672Z,97528.81
2023-03-31T11:08:42.599Z,97508.63
2023-03-31T11:11:25.340Z,97509.81
2023-03-31T11:14:08.178Z,97506.22
2023-03-31T11:16:58.977Z,97506.75
2023-03-31T11:19:35.657Z,97506.38
2023-03-31T11:22:26.638Z,97503.31
2023-03-31T11:25:03.297Z,97495.81
2023-03-31T11:27:51.072Z,97489.19
2023-03-31T11:30:21.702Z,97501.56
2023-03-31T11:33:21.070Z,97494.44
2023-03-31T11:36:06.107Z,97473.75
2023-03-31T11:38:53.770Z,97482.19
2023-03-31T11:41:27.444Z,97463.94
2023-03-31T11:44:02.558Z,97463.41
2023-03-31T11:46:56.050Z,97458.25
2023-03-31T11:49:30.442Z,97451.75
2023-03-31T11:52:01.361Z,97453.03
2023-03-31T11:54:34.196Z,97443.19
2023-03-31T11:57:10.777Z,97452.69
2023-03-31T11:59:37.597Z,97453.03
2023-03-31T12:02:11.551Z,97442.84
2023-03-31T12:04:40.395Z,97438.25
2023-03-31T12:07:31.239Z,97434.13
2023-03-31T12:10:05.606Z,97430.88
2023-03-31T12:12:42.360Z,97424.66
2023-03-31T12:15:27.924Z,97431.34
2023-03-31T12:18:02.053Z,97429.44
2023-03-31T12:20:40.747Z,97428.63
2023-03-31T12:23:13.052Z,97422.66
2023-03-31T12:25:52.611Z,97416.84
2023-03-31T12:28:19.727Z,97414.97
2023-03-31T12:30:46.695Z,97413.47
2023-03-31T12:33:15.773Z,97418.41
2023-03-31T12:35:52.955Z,97407.34
2023-03-31T12:38:22.836Z,97421.59
2023-03-31T12:41:04.660Z,97408.16
2023-03-31T12:43:35.783Z,97405.44
2023-03-31T12:46:36.837Z,97401.19
2023-03-31T12:49:07.094Z,97378.47
2023-03-31T12:51:44.227Z,97386.72
2023-03-31T12:54:26.998Z,97392.63
2023-03-31T12:57:00.014Z,97385.69
2023-03-31T12:59:41.086Z,97384.19
2023-03-31T13:02:14.994Z,97374.44
2023-03-31T13:04:42.437Z,97375.38
2023-03-31T13:07:29.046Z,97370.34
2023-03-31T13:10:01.642Z,97367.63
2023-03-31T13:12:28.710Z,97357.28
2023-03-31T13:14:59.543Z,97353.25
2023-03-31T13:17:31.612Z,97352.59
2023-03-31T13:20:38.073Z,97343.34
2023-03-31T13:23:04.882Z,97342.88
2023-03-31T13:25:44.988Z,97335.44
2023-03-31T13:28:39.224Z,97328.03
2023-03-31T13:31:07.763Z,97325.03
2023-03-31T13:33:41.208Z,97321.03
2023-03-31T13:36:37.854Z,97311.25
2023-03-31T13:39:32.451Z,97312.47
2023-03-31T13:42:34.942Z,97300.47
2023-03-31T13:45:32.492Z,97301.31
2023-03-31T13:48:02.727Z,97288.75
2023-03-31T13:50:41.712Z,97278.81
2023-03-31T13:53:20.909Z,97273.41
2023-03-31T13:55:53.502Z,97274.28
2023-03-31T14:01:20.901Z,97287.56
2023-03-31T14:04:15.569Z,97267.41
2023-03-31T14:07:02.485Z,97264.50
2023-03-31T14:09:34.338Z,97267.41
2023-03-31T14:12:01.942Z,97248.28
2023-03-31T14:14:29.953Z,97251.41
2023-03-31T14:16:57.341Z,97241.56
2023-03-31T14:19:30.852Z,97236.50
2023-03-31T14:22:03.663Z,97234.84
2023-03-31T14:24:45.117Z,97227.41
2023-03-31T14:27:21.123Z,97216.38
2023-03-31T14:29:51.636Z,97214.22
2023-03-31T14:32:55.562Z,97211.03
2023-03-31T14:35:31.873Z,97206.81
2023-03-31T14:37:59.083Z,97196.81
2023-03-31T14:40:26.537Z,97203.63
2023-03-31T14:42:53.419Z,97196.88
2023-03-31T14:45:25.617Z,97190.59
2023-03-31T14:47:59.852Z,97184.16
2023-03-31T14:50:32.679Z,97178.75
2023-03-31T14:53:01.364Z,97173.97
2023-03-31T14:55:44.155Z,97166.88
2023-03-31T14:58:24.481Z,97163.50
2023-03-31T15:00:51.811Z,97173.31
2023-03-31T15:03:18.665Z,97169.78
2023-03-31T15:05:48.815Z,97161.00
2023-03-31T15:08:18.727Z,97153.56
2023-03-31T15:10:54.030Z,97143.19
2023-03-31T15:13:25.673Z,97141.50
2023-03-31T15:15:52.797Z,97131.34
2023-03-31T15:18:19.558Z,97130.31
2023-03-31T15:20:46.739Z,97128.25
2023-03-31T15:23:30.791Z,97120.09
2023-03-31T15:25:59.145Z,97116.66
2023-03-31T15:28:27.589Z,97114.13
2023-03-31T15:31:03.500Z,97115.66
2023-03-31T15:33:41.501Z,97104.63
2023-03-31T15:36:10.628Z,97109.00
2023-03-31T15:38:37.421Z,97109.38
2023-03-31T15:41:04.522Z,97108.34
2023-03-31T15:43:45.229Z,97109.47
2023-03-31T15:46:40.030Z,97097.44
2023-03-31T15:49:21.070Z,97091.06
2023-03-31T15:51:48.777Z,97089.84
2023-03-31T15:54:40.974Z,97093.41
2023-03-31T15:57:09.075Z,97085.28
2023-03-31T15:59:55.779Z,97091.53
2023-03-31T16:02:27.962Z,97079.28
2023-03-31T16:04:56.979Z,97070.69
2023-03-31T16:07:27.414Z,97070.22
2023-03-31T16:09:57.379Z,97067.13
2023-03-31T16:12:32.204Z,97071.22
2023-03-31T16:15:05.894Z,97074.13
2023-03-31T16:17:36.760Z,97070.41
2023-03-31T16:20:07.570Z,97064.59
2023-03-31T16:22:43.303Z,97064.59
2023-03-31T16:25:21.366Z,97064.13
2023-03-31T16:27:54.641Z,97056.56
2023-03-31T16:30:23.722Z,97060.47
2023-03-31T16:33:10.154Z,97050.31
2023-03-31T16:35:38.615Z,97043.00
2023-03-31T16:38:06.756Z,97036.56
2023-03-31T16:40:38.632Z,97032.81
2023-03-31T16:43:15.897Z,97030.28
2023-03-31T16:45:52.917Z,97019.81
2023-03-31T16:48:20.889Z,97008.94
2023-03-31T16:50:49.066Z,97009.16
2023-03-31T16:53:22.224Z,97020.00
2023-03-31T16:55:49.359Z,97013.72
2023-03-31T16:58:16.677Z,97020.19
2023-03-31T17:00:43.694Z,97022.91
2023-03-31T17:03:11.830Z,97019.16
2023-03-31T17:05:43.493Z,97018.13
2023-03-31T17:08:11.148Z,97027.47
2023-03-31T17:10:38.832Z,97035.97
2023-03-31T17:13:06.546Z,97043.25
2023-03-31T17:15:36.436Z,97047.03
2023-03-31T17:18:06.334Z,97033.47
2023-03-31T17:20:34.263Z,97028.88
2023-03-31T17:23:01.636Z,97009.06
2023-03-31T17:25:28.565Z,97007.84
2023-03-31T17:27:56.281Z,96998.22
2023-03-31T17:30:23.289Z,97000.94
2023-03-31T17:32:51.563Z,97007.19
2023-03-31T17:35:22.632Z,97009.25
2023-03-31T17:37:51.669Z,97010.91
2023-03-31T17:40:18.452Z,97019.22
2023-03-31T17:42:47.210Z,97018.59
2023-03-31T17:45:14.338Z,97005.41
2023-03-31T17:47:42.066Z,97009.34
2023-03-31T17:50:09.403Z,97008.00
2023-03-31T17:52:36.653Z,97012.78
2023-03-31T17:55:04.336Z,97015.50
2023-03-31T17:57:32.191Z,97015.66
2023-03-31T17:59:59.195Z,97008.59
2023-03-31T18:02:26.344Z,97011.66
2023-03-31T18:04:53.476Z,97009.97
2023-03-31T18:07:23.147Z,97003.72
2023-03-31T18:09:49.947Z,96998.66
2023-03-31T18:12:17.683Z,96997.34
2023-03-31T18:14:44.654Z,96998.75
2023-03-31T18:17:14.911Z,96996.03
2023-03-31T18:19:42.883Z,96998.09
2023-03-31T18:22:10.220Z,96988.81
2023-03-31T18:24:38.477Z,96987.97
2023-03-31T18:27:05.779Z,96982.09
2023-03-31T18:29:32.776Z,96986.81
2023-03-31T18:32:00.124Z,96988.66
2023-03-31T18:34:27.293Z,96990.91
2023-03-31T18:36:54.670Z,96998.75
2023-03-31T18:39:22.159Z,97000.78
2023-03-31T18:41:49.299Z,96998.63
2023-03-31T18:44:17.470Z,97008.81
2023-03-31T18:46:45.132Z,97009.81
2023-03-31T18:49:12.085Z,97003.28
2023-03-31T18:51:39.222Z,97001.59
2023-03-31T18:54:06.262Z,97000.09
2023-03-31T18:56:33.390Z,96995.69
2023-03-31T18:59:00.191Z,96999.97
2023-03-31T19:01:27.484Z,96998.47
2023-03-31T19:03:54.463Z,96996.31
2023-03-31T19:06:22.525Z,96984.44
2023-03-31T19:08:49.488Z,96983.78
2023-03-31T19:11:17.063Z,96987.69
2023-03-31T19:13:44.009Z,96985.19
2023-03-31T19:16:12.311Z,96981.63
2023-03-31T19:18:39.535Z,96984.88
2023-03-31T19:21:06.776Z,96983.38
2023-03-31T19:23:34.206Z,96983.38
2023-03-31T19:26:02.988Z,96987.28
2023-03-31T19:28:30.556Z,96986.44
2023-03-31T19:30:58.043Z,96986.44
2023-03-31T19:33:25.552Z,96986.97
2023-03-31T19:35:52.918Z,96985.31
2023-03-31T19:38:21.632Z,96984.81
2023-03-31T19:40:49.120Z,96987.16
2023-03-31T19:43:23.310Z,96985.66
2023-03-31T19:45:52.928Z,96987.03
2023-03-31T19:48:20.118Z,96995.13
2023-03-31T19:50:51.151Z,97002.78
2023-03-31T19:53:18.558Z,97005.66
2023-03-31T19:55:57.508Z,97003.97
2023-03-31T20:02:53.369Z,97023.28
2023-03-31T20:05:21.038Z,97023.09
2023-03-31T20:07:48.076Z,97023.44
2023-03-31T20:10:15.960Z,97023.63
2023-03-31T20:12:43.273Z,97021.94
2023-03-31T20:15:10.557Z,97027.53
2023-03-31T20:17:38.659Z,97029.38
2023-03-31T20:20:06.380Z,97032.44
2023-03-31T20:22:33.313Z,97032.59
2023-03-31T20:25:01.088Z,97035.69
2023-03-31T20:27:28.066Z,97031.94
2023-03-31T20:29:55.620Z,97019.81
2023-03-31T20:32:24.166Z,97022.03
2023-03-31T20:34:51.746Z,97021.00
2023-03-31T20:37:19.070Z,97032.88
2023-03-31T20:39:46.556Z,97042.16
2023-03-31T20:42:13.360Z,97048.06
2023-03-31T20:44:41.085Z,97043.69
2023-03-31T20:47:08.350Z,97047.41
2023-03-31T20:49:35.836Z,97046.56
2023-03-31T20:52:02.713Z,97037.25
2023-03-31T20:54:29.841Z,97035.94
2023-03-31T20:56:56.718Z,97043.38
2023-03-31T20:59:24.071Z,97045.75
2023-03-31T21:01:50.863Z,97050.44
2023-03-31T21:04:18.081Z,97042.50
2023-03-31T21:06:46.448Z,97051.16
2023-03-31T21:09:13.965Z,97053.19
2023-03-31T21:11:40.913Z,97051.84
2023-03-31T21:14:10.226Z,97058.25
2023-03-31T21:16:37.515Z,97063.31
2023-03-31T21:19:04.659Z,97064.19
2023-03-31T21:21:31.608Z,97060.63
2023-03-31T21:23:58.926Z,97065.38
2023-03-31T21:26:25.907Z,97064.69
2023-03-31T21:28:55.590Z,97069.94
2023-03-31T21:31:24.256Z,97064.53
2023-03-31T21:33:52.273Z,97064.03
2023-03-31T21:36:22.446Z,97065.88
2023-03-31T21:38:50.552Z,97066.22
2023-03-31T21:41:19.129Z,97070.13
2023-03-31T21:43:46.456Z,97072.16
2023-03-31T21:46:20.792Z,97068.97
2023-03-31T21:48:48.884Z,97064.06
2023-03-31T21:51:17.069Z,97072.19
2023-03-31T21:53:44.398Z,97063.56
2023-03-31T21:56:11.226Z,97068.97
2023-03-31T21:58:38.359Z,97066.63
2023-03-31T22:01:05.348Z,97072.84
2023-03-31T22:03:34.603Z,97081.97
2023-03-31T22:06:03.484Z,97085.38
2023-03-31T22:08:31.623Z,97091.78
2023-03-31T22:11:00.344Z,97097.66
2023-03-31T22:13:28.124Z,97086.38
2023-03-31T22:15:54.943Z,97084.34
2023-03-31T22:18:22.163Z,97081.63
2023-03-31T22:20:49.188Z,97087.75
2023-03-31T22:23:16.739Z,97084.88
2023-03-31T22:25:43.688Z,97093.31
2023-03-31T22:28:16.128Z,97081.66
2023-03-31T22:30:42.965Z,97083.16
2023-03-31T22:33:10.083Z,97086.03
2023-03-31T22:35:37.048Z,97074.72
2023-03-31T22:38:06.102Z,97068.50
2023-03-31T22:40:34.636Z,97068.34
2023-03-31T22:43:01.839Z,97070.38
2023-03-31T22:45:28.614Z,97070.88
2023-03-31T22:47:56.569Z,97076.94
2023-03-31T22:50:23.848Z,97076.94
2023-03-31T22:52:50.966Z,97075.59
2023-03-31T22:55:17.770Z,97067.66
2023-03-31T22:57:44.962Z,97058.88
2023-03-31T23:00:12.870Z,97059.72
2023-03-31T23:02:40.648Z,97061.06
2023-03-31T23:05:08.004Z,97060.06
2023-03-31T23:07:35.174Z,97045.72
2023-03-31T23:10:02.230Z,97051.13
2023-03-31T23:12:29.411Z,97047.06
2023-03-31T23:14:56.427Z,97039.13
2023-03-31T23:17:23.630Z,97035.44
2023-03-31T23:19:50.534Z,97042.84
2023-03-31T23:22:19.069Z,97035.44
2023-03-31T23:24:46.615Z,97039.47
2023-03-31T23:27:13.622Z,97033.06
2023-03-31T23:29:41.427Z,97032.56
2023-03-31T23:32:08.548Z,97040.16
2023-03-31T23:34:35.413Z,97037.78
2023-03-31T23:37:02.428Z,97036.25
2023-03-31T23:39:29.285Z,97040.81
2023-03-31T23:41:57.238Z,97040.97
2023-03-31T23:44:23.970Z,97039.66
2023-03-31T23:46:51.284Z,97041.81
2023-03-31T23:49:18.113Z,97047.06
2023-03-31T23:51:45.290Z,97038.44
2023-03-31T23:54:12.310Z,97044.88
2023-03-31T23:56:39.400Z,97037.94
2023-03-31T23:59:06.507Z,97033.38
